sensor_id;sensor_type;location;lat;lon;timestamp;temperature;humidity
12309;DHT22;6217;48.150;17.142;2023-04-24T00:03:41;16.10;73.40
12309;DHT22;6217;48.150;17.142;2023-04-24T00:07:46;16.00;73.50
12309;DHT22;6217;48.150;17.142;2023-04-24T00:11:53;16.00;73.40
12309;DHT22;6217;48.150;17.142;2023-04-24T00:15:59;16.10;73.10
12309;DHT22;6217;48.150;17.142;2023-04-24T00:20:05;16.10;72.90
12309;DHT22;6217;48.150;17.142;2023-04-24T00:24:12;16.10;73.10
12309;DHT22;6217;48.150;17.142;2023-04-24T00:28:18;16.10;73.00
12309;DHT22;6217;48.150;17.142;2023-04-24T00:32:24;16.00;73.00
12309;DHT22;6217;48.150;17.142;2023-04-24T00:36:30;16.00;73.00
12309;DHT22;6217;48.150;17.142;2023-04-24T00:40:36;16.10;72.70
12309;DHT22;6217;48.150;17.142;2023-04-24T00:44:43;16.10;72.20
12309;DHT22;6217;48.150;17.142;2023-04-24T00:48:49;16.00;72.00
12309;DHT22;6217;48.150;17.142;2023-04-24T00:52:56;16.10;71.80
12309;DHT22;6217;48.150;17.142;2023-04-24T00:57:03;16.00;71.50
12309;DHT22;6217;48.150;17.142;2023-04-24T01:01:10;16.00;71.30
12309;DHT22;6217;48.150;17.142;2023-04-24T01:05:17;16.00;71.10
12309;DHT22;6217;48.150;17.142;2023-04-24T01:09:23;15.90;71.20
12309;DHT22;6217;48.150;17.142;2023-04-24T01:13:31;15.90;70.90
12309;DHT22;6217;48.150;17.142;2023-04-24T01:17:39;15.90;70.60
12309;DHT22;6217;48.150;17.142;2023-04-24T01:21:47;15.90;70.40
12309;DHT22;6217;48.150;17.142;2023-04-24T01:25:57;15.90;70.30
12309;DHT22;6217;48.150;17.142;2023-04-24T01:30:06;15.80;70.40
12309;DHT22;6217;48.150;17.142;2023-04-24T01:34:13;15.90;70.50
12309;DHT22;6217;48.150;17.142;2023-04-24T01:38:20;15.80;70.50
12309;DHT22;6217;48.150;17.142;2023-04-24T01:42:26;15.80;70.50
12309;DHT22;6217;48.150;17.142;2023-04-24T01:46:32;15.90;70.90
12309;DHT22;6217;48.150;17.142;2023-04-24T01:50:40;15.70;71.20
12309;DHT22;6217;48.150;17.142;2023-04-24T01:54:46;15.80;71.10
12309;DHT22;6217;48.150;17.142;2023-04-24T01:58:52;15.70;71.10
12309;DHT22;6217;48.150;17.142;2023-04-24T02:02:59;15.70;71.30
12309;DHT22;6217;48.150;17.142;2023-04-24T02:07:07;15.70;71.50
12309;DHT22;6217;48.150;17.142;2023-04-24T02:11:13;15.80;71.60
12309;DHT22;6217;48.150;17.142;2023-04-24T02:15:19;15.70;71.80
12309;DHT22;6217;48.150;17.142;2023-04-24T02:19:25;15.60;71.90
12309;DHT22;6217;48.150;17.142;2023-04-24T02:23:31;15.60;71.80
12309;DHT22;6217;48.150;17.142;2023-04-24T02:27:37;15.60;71.90
12309;DHT22;6217;48.150;17.142;2023-04-24T02:31:45;15.70;71.80
12309;DHT22;6217;48.150;17.142;2023-04-24T02:35:53;15.80;71.90
12309;DHT22;6217;48.150;17.142;2023-04-24T02:39:59;15.70;71.90
12309;DHT22;6217;48.150;17.142;2023-04-24T02:44:05;15.70;72.00
12309;DHT22;6217;48.150;17.142;2023-04-24T02:48:11;15.60;71.90
12309;DHT22;6217;48.150;17.142;2023-04-24T02:52:17;15.60;72.10
12309;DHT22;6217;48.150;17.142;2023-04-24T02:56:23;15.60;72.10
12309;DHT22;6217;48.150;17.142;2023-04-24T03:00:29;15.60;72.00
12309;DHT22;6217;48.150;17.142;2023-04-24T03:04:36;15.50;72.10
12309;DHT22;6217;48.150;17.142;2023-04-24T03:08:42;15.60;72.30
12309;DHT22;6217;48.150;17.142;2023-04-24T03:12:50;15.40;72.40
12309;DHT22;6217;48.150;17.142;2023-04-24T03:16:57;15.50;72.50
12309;DHT22;6217;48.150;17.142;2023-04-24T03:21:03;15.50;72.50
12309;DHT22;6217;48.150;17.142;2023-04-24T03:25:10;15.50;72.50
12309;DHT22;6217;48.150;17.142;2023-04-24T03:29:17;15.50;72.40
12309;DHT22;6217;48.150;17.142;2023-04-24T03:33:23;15.60;72.60
12309;DHT22;6217;48.150;17.142;2023-04-24T03:37:38;15.50;72.60
12309;DHT22;6217;48.150;17.142;2023-04-24T03:42:02;15.50;72.70
12309;DHT22;6217;48.150;17.142;2023-04-24T03:46:26;15.50;72.80
12309;DHT22;6217;48.150;17.142;2023-04-24T03:50:38;15.50;72.80
12309;DHT22;6217;48.150;17.142;2023-04-24T03:54:48;15.40;72.80
12309;DHT22;6217;48.150;17.142;2023-04-24T03:58:54;15.50;72.50
12309;DHT22;6217;48.150;17.142;2023-04-24T04:03:01;15.50;72.40
12309;DHT22;6217;48.150;17.142;2023-04-24T04:07:07;15.60;72.60
12309;DHT22;6217;48.150;17.142;2023-04-24T04:11:13;15.50;72.70
12309;DHT22;6217;48.150;17.142;2023-04-24T04:15:19;15.40;72.70
12309;DHT22;6217;48.150;17.142;2023-04-24T04:19:25;15.40;72.60
12309;DHT22;6217;48.150;17.142;2023-04-24T04:23:33;15.40;72.40
12309;DHT22;6217;48.150;17.142;2023-04-24T04:27:52;15.50;72.40
12309;DHT22;6217;48.150;17.142;2023-04-24T04:31:59;15.50;72.30
12309;DHT22;6217;48.150;17.142;2023-04-24T04:36:06;15.50;72.20
12309;DHT22;6217;48.150;17.142;2023-04-24T04:40:15;15.60;72.00
12309;DHT22;6217;48.150;17.142;2023-04-24T04:44:37;15.60;71.90
12309;DHT22;6217;48.150;17.142;2023-04-24T04:48:45;15.60;71.90
12309;DHT22;6217;48.150;17.142;2023-04-24T04:52:51;15.70;71.80
12309;DHT22;6217;48.150;17.142;2023-04-24T04:57:05;15.70;71.70
12309;DHT22;6217;48.150;17.142;2023-04-24T05:01:12;15.80;71.60
12309;DHT22;6217;48.150;17.142;2023-04-24T05:05:21;15.90;71.50
12309;DHT22;6217;48.150;17.142;2023-04-24T05:09:28;16.00;71.60
12309;DHT22;6217;48.150;17.142;2023-04-24T05:13:40;16.10;71.80
12309;DHT22;6217;48.150;17.142;2023-04-24T05:18:12;16.20;71.50
12309;DHT22;6217;48.150;17.142;2023-04-24T05:22:19;16.30;71.30
12309;DHT22;6217;48.150;17.142;2023-04-24T05:26:30;16.40;71.80
12309;DHT22;6217;48.150;17.142;2023-04-24T05:30:37;16.50;70.90
12309;DHT22;6217;48.150;17.142;2023-04-24T05:34:43;16.50;70.70
12309;DHT22;6217;48.150;17.142;2023-04-24T05:38:49;16.60;70.30
12309;DHT22;6217;48.150;17.142;2023-04-24T05:42:56;16.80;70.10
12309;DHT22;6217;48.150;17.142;2023-04-24T05:47:04;16.90;69.70
12309;DHT22;6217;48.150;17.142;2023-04-24T05:51:09;17.30;69.70
12309;DHT22;6217;48.150;17.142;2023-04-24T05:55:15;17.30;68.80
12309;DHT22;6217;48.150;17.142;2023-04-24T05:59:23;17.50;68.10
12309;DHT22;6217;48.150;17.142;2023-04-24T06:03:31;17.50;67.50
12309;DHT22;6217;48.150;17.142;2023-04-24T06:07:37;17.50;67.40
12309;DHT22;6217;48.150;17.142;2023-04-24T06:11:46;17.30;67.30
12309;DHT22;6217;48.150;17.142;2023-04-24T06:15:53;17.30;67.40
12309;DHT22;6217;48.150;17.142;2023-04-24T06:20:09;17.40;67.00
12309;DHT22;6217;48.150;17.142;2023-04-24T06:24:16;17.40;67.90
12309;DHT22;6217;48.150;17.142;2023-04-24T06:28:22;17.70;67.20
12309;DHT22;6217;48.150;17.142;2023-04-24T06:32:28;18.10;66.40
12309;DHT22;6217;48.150;17.142;2023-04-24T06:36:34;18.50;65.90
12309;DHT22;6217;48.150;17.142;2023-04-24T06:40:41;19.00;64.90
12309;DHT22;6217;48.150;17.142;2023-04-24T06:44:47;19.10;64.70
12309;DHT22;6217;48.150;17.142;2023-04-24T06:48:53;19.30;64.20
12309;DHT22;6217;48.150;17.142;2023-04-24T06:53:02;19.60;64.50
12309;DHT22;6217;48.150;17.142;2023-04-24T06:57:08;19.70;63.70
12309;DHT22;6217;48.150;17.142;2023-04-24T07:01:14;19.90;63.40
12309;DHT22;6217;48.150;17.142;2023-04-24T07:05:20;19.80;63.30
12309;DHT22;6217;48.150;17.142;2023-04-24T07:09:26;19.90;63.60
12309;DHT22;6217;48.150;17.142;2023-04-24T07:13:32;19.80;63.50
12309;DHT22;6217;48.150;17.142;2023-04-24T07:17:40;19.60;63.50
12309;DHT22;6217;48.150;17.142;2023-04-24T07:21:49;19.50;64.00
12309;DHT22;6217;48.150;17.142;2023-04-24T07:25:55;19.60;64.10
12309;DHT22;6217;48.150;17.142;2023-04-24T07:30:05;19.70;64.00
12309;DHT22;6217;48.150;17.142;2023-04-24T07:34:12;19.80;64.00
12309;DHT22;6217;48.150;17.142;2023-04-24T07:38:18;20.00;63.90
12309;DHT22;6217;48.150;17.142;2023-04-24T07:42:28;20.10;63.70
12309;DHT22;6217;48.150;17.142;2023-04-24T07:46:35;20.10;63.90
12309;DHT22;6217;48.150;17.142;2023-04-24T07:50:42;20.20;63.40
12309;DHT22;6217;48.150;17.142;2023-04-24T07:54:48;20.30;63.10
12309;DHT22;6217;48.150;17.142;2023-04-24T07:58:55;20.50;63.00
12309;DHT22;6217;48.150;17.142;2023-04-24T08:03:01;20.60;62.80
12309;DHT22;6217;48.150;17.142;2023-04-24T08:07:07;20.40;62.80
12309;DHT22;6217;48.150;17.142;2023-04-24T08:11:13;20.30;63.10
12309;DHT22;6217;48.150;17.142;2023-04-24T08:15:19;20.10;63.20
12309;DHT22;6217;48.150;17.142;2023-04-24T08:19:25;20.10;63.30
12309;DHT22;6217;48.150;17.142;2023-04-24T08:23:31;20.20;63.10
12309;DHT22;6217;48.150;17.142;2023-04-24T08:27:37;20.00;63.30
12309;DHT22;6217;48.150;17.142;2023-04-24T08:31:44;19.80;63.70
12309;DHT22;6217;48.150;17.142;2023-04-24T08:35:50;19.80;64.00
12309;DHT22;6217;48.150;17.142;2023-04-24T08:39:56;19.90;63.80
12309;DHT22;6217;48.150;17.142;2023-04-24T08:44:02;20.00;63.40
12309;DHT22;6217;48.150;17.142;2023-04-24T08:48:09;20.10;63.20
12309;DHT22;6217;48.150;17.142;2023-04-24T08:52:15;20.20;63.10
12309;DHT22;6217;48.150;17.142;2023-04-24T08:56:22;20.10;62.90
12309;DHT22;6217;48.150;17.142;2023-04-24T09:00:29;20.10;63.00
12309;DHT22;6217;48.150;17.142;2023-04-24T09:04:36;20.00;63.30
12309;DHT22;6217;48.150;17.142;2023-04-24T09:08:43;20.00;63.40
12309;DHT22;6217;48.150;17.142;2023-04-24T09:12:51;19.90;63.00
12309;DHT22;6217;48.150;17.142;2023-04-24T09:16:58;19.90;63.30
12309;DHT22;6217;48.150;17.142;2023-04-24T09:21:07;19.50;63.70
12309;DHT22;6217;48.150;17.142;2023-04-24T09:25:14;19.30;64.00
12309;DHT22;6217;48.150;17.142;2023-04-24T09:29:20;19.10;64.40
12309;DHT22;6217;48.150;17.142;2023-04-24T09:33:26;18.80;64.80
12309;DHT22;6217;48.150;17.142;2023-04-24T09:37:45;18.60;65.10
12309;DHT22;6217;48.150;17.142;2023-04-24T09:41:54;18.60;65.10
12309;DHT22;6217;48.150;17.142;2023-04-24T09:46:07;18.40;65.10
12309;DHT22;6217;48.150;17.142;2023-04-24T09:50:16;18.40;65.50
12309;DHT22;6217;48.150;17.142;2023-04-24T09:54:22;18.30;65.70
12309;DHT22;6217;48.150;17.142;2023-04-24T09:58:29;18.30;65.70
12309;DHT22;6217;48.150;17.142;2023-04-24T10:02:35;18.20;65.80
12309;DHT22;6217;48.150;17.142;2023-04-24T10:06:43;18.30;66.00
12309;DHT22;6217;48.150;17.142;2023-04-24T10:10:49;18.20;66.00
12309;DHT22;6217;48.150;17.142;2023-04-24T10:14:55;18.20;66.30
12309;DHT22;6217;48.150;17.142;2023-04-24T10:19:03;18.10;66.60
12309;DHT22;6217;48.150;17.142;2023-04-24T10:23:09;17.90;67.30
12309;DHT22;6217;48.150;17.142;2023-04-24T10:27:16;17.80;68.10
12309;DHT22;6217;48.150;17.142;2023-04-24T10:31:22;17.60;69.20
12309;DHT22;6217;48.150;17.142;2023-04-24T10:35:34;17.30;70.20
12309;DHT22;6217;48.150;17.142;2023-04-24T10:39:47;17.10;71.30
12309;DHT22;6217;48.150;17.142;2023-04-24T10:44:14;17.00;71.60
12309;DHT22;6217;48.150;17.142;2023-04-24T10:48:26;17.20;71.70
12309;DHT22;6217;48.150;17.142;2023-04-24T10:52:46;17.10;71.90
12309;DHT22;6217;48.150;17.142;2023-04-24T11:01:30;16.90;72.70
12309;DHT22;6217;48.150;17.142;2023-04-24T11:05:59;16.90;72.50
12309;DHT22;6217;48.150;17.142;2023-04-24T11:10:07;16.90;72.70
12309;DHT22;6217;48.150;17.142;2023-04-24T11:14:16;16.90;72.90
12309;DHT22;6217;48.150;17.142;2023-04-24T11:18:22;16.80;73.20
12309;DHT22;6217;48.150;17.142;2023-04-24T11:22:29;16.80;73.30
12309;DHT22;6217;48.150;17.142;2023-04-24T11:26:39;17.00;73.30
12309;DHT22;6217;48.150;17.142;2023-04-24T11:30:46;17.10;73.10
12309;DHT22;6217;48.150;17.142;2023-04-24T11:34:57;17.10;73.50
12309;DHT22;6217;48.150;17.142;2023-04-24T11:39:04;17.00;74.00
12309;DHT22;6217;48.150;17.142;2023-04-24T11:43:11;17.00;74.20
12309;DHT22;6217;48.150;17.142;2023-04-24T11:47:17;16.90;74.80
12309;DHT22;6217;48.150;17.142;2023-04-24T11:51:24;16.90;75.20
12309;DHT22;6217;48.150;17.142;2023-04-24T11:55:33;16.90;75.90
12309;DHT22;6217;48.150;17.142;2023-04-24T11:59:39;16.90;76.30
12309;DHT22;6217;48.150;17.142;2023-04-24T12:03:49;16.90;76.80
12309;DHT22;6217;48.150;17.142;2023-04-24T12:07:56;16.90;77.60
12309;DHT22;6217;48.150;17.142;2023-04-24T12:12:02;16.90;78.00
12309;DHT22;6217;48.150;17.142;2023-04-24T12:16:08;17.00;78.60
12309;DHT22;6217;48.150;17.142;2023-04-24T12:20:14;17.10;78.50
12309;DHT22;6217;48.150;17.142;2023-04-24T12:24:20;17.10;78.40
12309;DHT22;6217;48.150;17.142;2023-04-24T12:28:35;17.10;78.20
12309;DHT22;6217;48.150;17.142;2023-04-24T12:32:46;17.10;78.20
12309;DHT22;6217;48.150;17.142;2023-04-24T12:36:53;17.00;78.00
12309;DHT22;6217;48.150;17.142;2023-04-24T12:41:10;16.90;78.20
12309;DHT22;6217;48.150;17.142;2023-04-24T12:45:18;17.00;78.50
12309;DHT22;6217;48.150;17.142;2023-04-24T12:49:24;17.00;78.60
12309;DHT22;6217;48.150;17.142;2023-04-24T12:53:30;16.90;78.50
12309;DHT22;6217;48.150;17.142;2023-04-24T12:57:38;17.00;78.50
12309;DHT22;6217;48.150;17.142;2023-04-24T13:01:44;17.00;78.60
12309;DHT22;6217;48.150;17.142;2023-04-24T13:05:50;16.90;78.70
12309;DHT22;6217;48.150;17.142;2023-04-24T13:09:56;16.80;78.50
12309;DHT22;6217;48.150;17.142;2023-04-24T13:14:03;16.80;78.50
12309;DHT22;6217;48.150;17.142;2023-04-24T13:18:09;16.80;78.40
12309;DHT22;6217;48.150;17.142;2023-04-24T13:22:14;16.80;78.10
12309;DHT22;6217;48.150;17.142;2023-04-24T13:26:20;16.60;78.00
12309;DHT22;6217;48.150;17.142;2023-04-24T13:30:26;16.60;78.10
12309;DHT22;6217;48.150;17.142;2023-04-24T13:34:32;16.60;78.10
12309;DHT22;6217;48.150;17.142;2023-04-24T13:38:40;16.60;78.20
12309;DHT22;6217;48.150;17.142;2023-04-24T13:42:46;16.50;78.50
12309;DHT22;6217;48.150;17.142;2023-04-24T13:46:53;16.50;78.60
12309;DHT22;6217;48.150;17.142;2023-04-24T13:51:01;16.40;79.10
12309;DHT22;6217;48.150;17.142;2023-04-24T13:55:08;16.40;79.10
12309;DHT22;6217;48.150;17.142;2023-04-24T13:59:14;16.30;79.10
12309;DHT22;6217;48.150;17.142;2023-04-24T14:03:19;16.40;79.00
12309;DHT22;6217;48.150;17.142;2023-04-24T14:07:25;16.50;79.00
12309;DHT22;6217;48.150;17.142;2023-04-24T14:11:33;16.50;78.80
12309;DHT22;6217;48.150;17.142;2023-04-24T14:15:39;16.50;78.70
12309;DHT22;6217;48.150;17.142;2023-04-24T14:19:45;16.70;78.30
12309;DHT22;6217;48.150;17.142;2023-04-24T14:23:51;16.60;78.00
12309;DHT22;6217;48.150;17.142;2023-04-24T14:27:57;16.60;77.80
12309;DHT22;6217;48.150;17.142;2023-04-24T14:32:03;16.50;78.00
12309;DHT22;6217;48.150;17.142;2023-04-24T14:36:09;16.50;77.70
12309;DHT22;6217;48.150;17.142;2023-04-24T14:40:15;16.60;77.20
12309;DHT22;6217;48.150;17.142;2023-04-24T14:44:21;16.50;77.00
12309;DHT22;6217;48.150;17.142;2023-04-24T14:48:27;16.40;76.70
12309;DHT22;6217;48.150;17.142;2023-04-24T14:52:33;16.50;76.30
12309;DHT22;6217;48.150;17.142;2023-04-24T14:56:39;16.40;76.00
12309;DHT22;6217;48.150;17.142;2023-04-24T15:00:46;16.40;76.20
12309;DHT22;6217;48.150;17.142;2023-04-24T15:04:52;16.40;76.30
12309;DHT22;6217;48.150;17.142;2023-04-24T15:08:58;16.30;76.40
12309;DHT22;6217;48.150;17.142;2023-04-24T15:13:04;16.20;76.90
12309;DHT22;6217;48.150;17.142;2023-04-24T15:17:10;16.10;76.90
12309;DHT22;6217;48.150;17.142;2023-04-24T15:21:16;16.10;77.30
12309;DHT22;6217;48.150;17.142;2023-04-24T15:25:22;16.00;77.40
12309;DHT22;6217;48.150;17.142;2023-04-24T15:29:28;16.00;77.70
12309;DHT22;6217;48.150;17.142;2023-04-24T15:33:34;16.00;78.20
12309;DHT22;6217;48.150;17.142;2023-04-24T15:37:40;15.90;78.70
12309;DHT22;6217;48.150;17.142;2023-04-24T15:41:46;15.80;79.30
12309;DHT22;6217;48.150;17.142;2023-04-24T15:45:52;15.80;79.40
12309;DHT22;6217;48.150;17.142;2023-04-24T15:49:58;15.70;79.50
12309;DHT22;6217;48.150;17.142;2023-04-24T15:54:04;15.80;79.80
12309;DHT22;6217;48.150;17.142;2023-04-24T15:58:10;15.70;79.90
12309;DHT22;6217;48.150;17.142;2023-04-24T16:02:15;15.70;80.00
12309;DHT22;6217;48.150;17.142;2023-04-24T16:06:23;15.60;80.10
12309;DHT22;6217;48.150;17.142;2023-04-24T16:10:29;15.60;80.20
12309;DHT22;6217;48.150;17.142;2023-04-24T16:14:38;15.50;80.30
12309;DHT22;6217;48.150;17.142;2023-04-24T16:18:45;15.50;80.50
12309;DHT22;6217;48.150;17.142;2023-04-24T16:22:52;15.70;80.40
12309;DHT22;6217;48.150;17.142;2023-04-24T16:26:58;15.60;80.40
12309;DHT22;6217;48.150;17.142;2023-04-24T16:31:04;15.60;80.50
12309;DHT22;6217;48.150;17.142;2023-04-24T16:35:10;15.60;80.80
12309;DHT22;6217;48.150;17.142;2023-04-24T16:39:16;15.60;80.90
12309;DHT22;6217;48.150;17.142;2023-04-24T16:43:21;15.70;81.20
12309;DHT22;6217;48.150;17.142;2023-04-24T16:47:27;15.70;81.50
12309;DHT22;6217;48.150;17.142;2023-04-24T16:51:33;15.60;81.50
12309;DHT22;6217;48.150;17.142;2023-04-24T16:55:40;15.60;81.80
12309;DHT22;6217;48.150;17.142;2023-04-24T16:59:45;15.60;81.80
12309;DHT22;6217;48.150;17.142;2023-04-24T17:03:51;15.60;81.90
12309;DHT22;6217;48.150;17.142;2023-04-24T17:07:57;15.60;82.80
12309;DHT22;6217;48.150;17.142;2023-04-24T17:12:03;15.60;82.40
12309;DHT22;6217;48.150;17.142;2023-04-24T17:16:10;15.50;82.70
12309;DHT22;6217;48.150;17.142;2023-04-24T17:20:16;15.60;83.10
12309;DHT22;6217;48.150;17.142;2023-04-24T17:24:22;15.40;83.50
12309;DHT22;6217;48.150;17.142;2023-04-24T17:28:29;15.10;84.00
12309;DHT22;6217;48.150;17.142;2023-04-24T17:32:36;14.80;84.70
12309;DHT22;6217;48.150;17.142;2023-04-24T17:36:42;14.70;84.70
12309;DHT22;6217;48.150;17.142;2023-04-24T17:40:49;14.70;84.50
12309;DHT22;6217;48.150;17.142;2023-04-24T17:44:58;14.60;84.40
12309;DHT22;6217;48.150;17.142;2023-04-24T17:49:04;14.50;84.20
12309;DHT22;6217;48.150;17.142;2023-04-24T17:53:10;14.40;83.90
12309;DHT22;6217;48.150;17.142;2023-04-24T17:57:17;14.40;84.00
12309;DHT22;6217;48.150;17.142;2023-04-24T18:01:23;14.30;83.80
12309;DHT22;6217;48.150;17.142;2023-04-24T18:05:30;14.30;84.30
12309;DHT22;6217;48.150;17.142;2023-04-24T18:09:36;14.20;84.50
12309;DHT22;6217;48.150;17.142;2023-04-24T18:13:42;14.20;84.70
12309;DHT22;6217;48.150;17.142;2023-04-24T18:17:51;14.10;85.00
12309;DHT22;6217;48.150;17.142;2023-04-24T18:21:57;14.10;85.60
12309;DHT22;6217;48.150;17.142;2023-04-24T18:26:04;14.00;85.80
12309;DHT22;6217;48.150;17.142;2023-04-24T18:30:10;14.00;86.00
12309;DHT22;6217;48.150;17.142;2023-04-24T18:34:16;14.00;86.30
12309;DHT22;6217;48.150;17.142;2023-04-24T18:38:25;14.00;86.50
12309;DHT22;6217;48.150;17.142;2023-04-24T18:42:31;14.00;86.40
12309;DHT22;6217;48.150;17.142;2023-04-24T18:46:37;14.10;86.50
12309;DHT22;6217;48.150;17.142;2023-04-24T18:50:45;14.00;86.80
12309;DHT22;6217;48.150;17.142;2023-04-24T18:54:51;14.10;87.10
12309;DHT22;6217;48.150;17.142;2023-04-24T18:58:57;14.00;87.20
12309;DHT22;6217;48.150;17.142;2023-04-24T19:03:03;14.00;87.60
12309;DHT22;6217;48.150;17.142;2023-04-24T19:07:40;14.00;87.60
12309;DHT22;6217;48.150;17.142;2023-04-24T19:11:47;14.30;87.70
12309;DHT22;6217;48.150;17.142;2023-04-24T19:15:55;14.00;87.60
12309;DHT22;6217;48.150;17.142;2023-04-24T19:20:01;14.10;87.70
12309;DHT22;6217;48.150;17.142;2023-04-24T19:24:09;14.30;87.90
12309;DHT22;6217;48.150;17.142;2023-04-24T19:28:18;14.00;87.90
12309;DHT22;6217;48.150;17.142;2023-04-24T19:32:24;14.10;88.00
12309;DHT22;6217;48.150;17.142;2023-04-24T19:36:30;14.10;88.10
12309;DHT22;6217;48.150;17.142;2023-04-24T19:40:36;14.10;88.10
12309;DHT22;6217;48.150;17.142;2023-04-24T19:44:42;14.10;88.10
12309;DHT22;6217;48.150;17.142;2023-04-24T19:48:48;14.10;88.30
12309;DHT22;6217;48.150;17.142;2023-04-24T19:52:54;14.20;88.20
12309;DHT22;6217;48.150;17.142;2023-04-24T19:57:00;14.00;88.20
12309;DHT22;6217;48.150;17.142;2023-04-24T20:01:07;14.10;88.20
12309;DHT22;6217;48.150;17.142;2023-04-24T20:05:13;14.10;88.50
12309;DHT22;6217;48.150;17.142;2023-04-24T20:09:19;14.10;88.60
12309;DHT22;6217;48.150;17.142;2023-04-24T20:13:27;14.10;88.60
12309;DHT22;6217;48.150;17.142;2023-04-24T20:17:38;14.10;88.90
12309;DHT22;6217;48.150;17.142;2023-04-24T20:21:44;14.10;89.00
12309;DHT22;6217;48.150;17.142;2023-04-24T20:25:50;14.00;89.10
12309;DHT22;6217;48.150;17.142;2023-04-24T20:30:02;14.00;89.40
12309;DHT22;6217;48.150;17.142;2023-04-24T20:34:08;14.00;89.50
12309;DHT22;6217;48.150;17.142;2023-04-24T20:38:14;13.90;89.70
12309;DHT22;6217;48.150;17.142;2023-04-24T20:42:23;14.00;89.60
12309;DHT22;6217;48.150;17.142;2023-04-24T20:46:29;14.00;89.60
12309;DHT22;6217;48.150;17.142;2023-04-24T20:50:35;14.00;89.70
12309;DHT22;6217;48.150;17.142;2023-04-24T20:54:43;14.00;89.60
12309;DHT22;6217;48.150;17.142;2023-04-24T20:58:49;14.00;89.70
12309;DHT22;6217;48.150;17.142;2023-04-24T21:02:55;14.00;89.50
12309;DHT22;6217;48.150;17.142;2023-04-24T21:07:01;14.00;89.40
12309;DHT22;6217;48.150;17.142;2023-04-24T21:11:07;14.00;89.30
12309;DHT22;6217;48.150;17.142;2023-04-24T21:15:13;14.00;89.20
12309;DHT22;6217;48.150;17.142;2023-04-24T21:19:19;13.90;89.20
12309;DHT22;6217;48.150;17.142;2023-04-24T21:23:25;14.00;88.90
12309;DHT22;6217;48.150;17.142;2023-04-24T21:27:31;13.90;88.90
12309;DHT22;6217;48.150;17.142;2023-04-24T21:31:37;13.90;88.80
12309;DHT22;6217;48.150;17.142;2023-04-24T21:35:43;14.00;88.80
12309;DHT22;6217;48.150;17.142;2023-04-24T21:39:49;13.90;88.50
12309;DHT22;6217;48.150;17.142;2023-04-24T21:44:00;13.90;88.40
12309;DHT22;6217;48.150;17.142;2023-04-24T21:48:09;13.90;88.30
12309;DHT22;6217;48.150;17.142;2023-04-24T21:52:23;14.00;88.00
12309;DHT22;6217;48.150;17.142;2023-04-24T21:56:30;13.90;87.80
12309;DHT22;6217;48.150;17.142;2023-04-24T22:00:41;13.80;87.90
12309;DHT22;6217;48.150;17.142;2023-04-24T22:05:30;13.80;88.00
12309;DHT22;6217;48.150;17.142;2023-04-24T22:09:36;13.80;87.80
12309;DHT22;6217;48.150;17.142;2023-04-24T22:13:44;13.80;87.50
12309;DHT22;6217;48.150;17.142;2023-04-24T22:17:56;13.80;87.30
12309;DHT22;6217;48.150;17.142;2023-04-24T22:22:04;13.80;87.30
12309;DHT22;6217;48.150;17.142;2023-04-24T22:26:10;13.60;87.30
12309;DHT22;6217;48.150;17.142;2023-04-24T22:30:16;13.60;87.60
12309;DHT22;6217;48.150;17.142;2023-04-24T22:34:25;13.60;87.60
12309;DHT22;6217;48.150;17.142;2023-04-24T22:38:31;13.60;87.40
12309;DHT22;6217;48.150;17.142;2023-04-24T22:42:37;13.60;87.10
12309;DHT22;6217;48.150;17.142;2023-04-24T22:46:43;13.60;86.90
12309;DHT22;6217;48.150;17.142;2023-04-24T22:50:51;13.70;86.90
12309;DHT22;6217;48.150;17.142;2023-04-24T22:54:57;13.60;86.70
12309;DHT22;6217;48.150;17.142;2023-04-24T22:59:04;13.70;86.70
12309;DHT22;6217;48.150;17.142;2023-04-24T23:03:11;13.70;86.70
12309;DHT22;6217;48.150;17.142;2023-04-24T23:07:17;13.70;86.50
12309;DHT22;6217;48.150;17.142;2023-04-24T23:11:23;13.60;86.50
12309;DHT22;6217;48.150;17.142;2023-04-24T23:15:30;13.60;86.60
12309;DHT22;6217;48.150;17.142;2023-04-24T23:19:36;13.60;86.40
12309;DHT22;6217;48.150;17.142;2023-04-24T23:23:42;13.50;86.40
12309;DHT22;6217;48.150;17.142;2023-04-24T23:27:48;13.60;86.50
12309;DHT22;6217;48.150;17.142;2023-04-24T23:31:56;13.50;86.50
12309;DHT22;6217;48.150;17.142;2023-04-24T23:36:03;13.40;86.40
12309;DHT22;6217;48.150;17.142;2023-04-24T23:40:11;13.40;86.30
12309;DHT22;6217;48.150;17.142;2023-04-24T23:44:18;13.40;86.40
12309;DHT22;6217;48.150;17.142;2023-04-24T23:48:25;13.50;86.10
12309;DHT22;6217;48.150;17.142;2023-04-24T23:52:31;13.50;86.20
12309;DHT22;6217;48.150;17.142;2023-04-24T23:56:39;13.50;86.10
